createdAt,value
2023-05-19T00:02:22.552Z,5.00
2023-05-19T00:04:49.787Z,4.70
2023-05-19T00:07:19.649Z,5.83
2023-05-19T00:09:47.075Z,4.80
2023-05-19T00:12:14.205Z,5.30
2023-05-19T00:14:41.149Z,5.33
2023-05-19T00:17:08.097Z,5.03
2023-05-19T00:19:34.888Z,5.50
2023-05-19T00:22:01.613Z,5.17
2023-05-19T00:24:28.465Z,5.30
2023-05-19T00:26:55.323Z,5.53
2023-05-19T00:29:22.809Z,5.43
2023-05-19T00:31:49.641Z,6.20
2023-05-19T00:34:16.414Z,6.10
2023-05-19T00:36:43.215Z,5.63
2023-05-19T00:39:10.035Z,5.70
2023-05-19T00:41:36.790Z,5.77
2023-05-19T00:44:03.725Z,5.87
2023-05-19T00:46:30.946Z,5.30
2023-05-19T00:48:57.806Z,5.93
2023-05-19T00:51:26.296Z,6.40
2023-05-19T00:53:53.315Z,5.70
2023-05-19T00:56:21.193Z,6.27
2023-05-19T00:58:48.175Z,5.70
2023-05-19T01:01:17.376Z,6.17
2023-05-19T01:03:44.800Z,5.33
2023-05-19T01:06:12.406Z,5.53
2023-05-19T01:08:39.522Z,5.60
2023-05-19T01:11:07.148Z,6.17
2023-05-19T01:13:34.710Z,6.30
2023-05-19T01:16:06.951Z,6.47
2023-05-19T01:18:43.789Z,6.53
2023-05-19T01:21:28.742Z,6.67
2023-05-19T01:24:02.626Z,6.83
2023-05-19T01:26:32.256Z,6.90
2023-05-19T01:29:11.354Z,6.97
2023-05-19T01:31:39.220Z,6.63
2023-05-19T01:34:06.773Z,6.80
2023-05-19T01:36:33.973Z,6.93
2023-05-19T01:39:01.624Z,6.60
2023-05-19T01:41:30.800Z,7.07
2023-05-19T01:43:58.013Z,5.93
2023-05-19T01:46:24.847Z,6.30
2023-05-19T01:48:52.512Z,6.50
2023-05-19T01:51:19.935Z,7.00
2023-05-19T01:53:46.959Z,6.70
2023-05-19T01:56:16.894Z,6.30
2023-05-19T01:58:47.624Z,6.50
2023-05-19T02:01:14.521Z,6.53
2023-05-19T02:03:59.980Z,7.00
2023-05-19T02:06:44.688Z,6.63
2023-05-19T02:09:16.249Z,7.10
2023-05-19T02:11:52.130Z,7.43
2023-05-19T02:14:29.857Z,7.27
2023-05-19T02:16:57.995Z,6.90
2023-05-19T02:19:26.345Z,6.50
2023-05-19T02:21:55.436Z,7.23
2023-05-19T02:24:23.112Z,8.47
2023-05-19T02:26:50.493Z,6.60
2023-05-19T02:29:19.168Z,8.00
2023-05-19T02:31:45.975Z,7.63
2023-05-19T02:34:13.210Z,8.43
2023-05-19T02:36:44.377Z,7.33
2023-05-19T02:39:11.293Z,7.63
2023-05-19T02:41:38.309Z,8.20
2023-05-19T02:44:05.533Z,7.10
2023-05-19T02:46:32.837Z,7.43
2023-05-19T02:48:59.697Z,7.07
2023-05-19T02:51:27.885Z,7.53
2023-05-19T02:53:54.951Z,8.30
2023-05-19T02:56:21.986Z,7.17
2023-05-19T02:58:48.826Z,8.00
2023-05-19T03:01:16.763Z,7.63
2023-05-19T03:03:43.744Z,7.30
2023-05-19T03:06:10.592Z,8.00
2023-05-19T03:08:38.777Z,8.40
2023-05-19T03:11:06.851Z,8.20
2023-05-19T03:13:33.690Z,8.50
2023-05-19T03:16:00.499Z,8.57
2023-05-19T03:18:27.431Z,7.87
2023-05-19T03:20:54.671Z,8.60
2023-05-19T03:23:22.768Z,8.33
2023-05-19T03:25:49.697Z,8.57
2023-05-19T03:28:17.376Z,8.53
2023-05-19T03:30:44.434Z,8.70
2023-05-19T03:33:15.729Z,8.70
2023-05-19T03:35:44.499Z,8.93
2023-05-19T03:38:11.301Z,9.30
2023-05-19T03:40:42.008Z,9.23
2023-05-19T03:43:11.156Z,9.27
2023-05-19T03:45:45.379Z,9.67
2023-05-19T03:48:32.140Z,8.90
2023-05-19T03:51:17.217Z,8.80
2023-05-19T03:53:45.799Z,9.13
2023-05-19T03:56:14.057Z,9.60
2023-05-19T03:58:45.101Z,8.93
2023-05-19T04:01:12.050Z,9.10
2023-05-19T04:03:38.881Z,9.93
2023-05-19T04:06:06.123Z,9.20
2023-05-19T04:08:33.404Z,9.20
2023-05-19T04:11:00.189Z,9.30
2023-05-19T04:13:26.946Z,9.23
2023-05-19T04:15:53.737Z,9.60
2023-05-19T04:18:20.819Z,8.80
2023-05-19T04:20:47.908Z,9.87
2023-05-19T04:23:14.682Z,10.03
2023-05-19T04:25:42.381Z,9.30
2023-05-19T04:28:09.300Z,9.10
2023-05-19T04:30:37.288Z,9.27
2023-05-19T04:33:05.006Z,8.50
2023-05-19T04:35:32.138Z,9.10
2023-05-19T04:38:01.782Z,8.77
2023-05-19T04:40:32.137Z,8.50
2023-05-19T04:42:59.256Z,7.30
2023-05-19T04:45:26.311Z,6.17
2023-05-19T04:47:58.334Z,5.80
2023-05-19T04:50:25.568Z,5.73
2023-05-19T04:52:52.902Z,5.83
2023-05-19T04:55:19.857Z,5.27
2023-05-19T04:57:48.369Z,5.40
2023-05-19T05:00:15.995Z,5.10
2023-05-19T05:03:00.256Z,4.83
2023-05-19T05:05:29.710Z,4.80
2023-05-19T05:07:56.507Z,4.70
2023-05-19T05:10:25.792Z,4.00
2023-05-19T05:12:53.762Z,4.30
2023-05-19T05:15:20.937Z,4.33
2023-05-19T05:17:49.940Z,4.40
2023-05-19T05:20:17.556Z,4.17
2023-05-19T05:22:44.698Z,3.87
2023-05-19T05:25:13.057Z,4.30
2023-05-19T05:27:40.029Z,3.60
2023-05-19T05:30:08.743Z,4.47
2023-05-19T05:32:36.797Z,4.30
2023-05-19T05:35:08.799Z,4.60
2023-05-19T05:37:35.814Z,3.93
2023-05-19T05:40:02.807Z,4.13
2023-05-19T05:42:30.348Z,4.00
2023-05-19T05:44:57.308Z,4.23
2023-05-19T05:47:24.354Z,4.10
2023-05-19T05:49:53.490Z,4.27
2023-05-19T05:52:21.346Z,3.90
2023-05-19T05:54:48.777Z,4.00
2023-05-19T05:57:18.241Z,3.70
2023-05-19T05:59:47.212Z,3.70
2023-05-19T06:02:14.836Z,3.57
2023-05-19T06:04:41.985Z,3.37
2023-05-19T06:07:09.076Z,3.40
2023-05-19T06:09:38.217Z,3.77
2023-05-19T06:12:07.033Z,4.10
2023-05-19T06:14:39.862Z,3.70
2023-05-19T06:17:12.817Z,3.30
2023-05-19T06:19:39.872Z,3.93
2023-05-19T06:22:07.369Z,3.70
2023-05-19T06:24:34.479Z,3.37
2023-05-19T06:27:01.818Z,3.83
2023-05-19T06:29:28.824Z,3.63
2023-05-19T06:31:59.401Z,4.07
2023-05-19T06:34:29.162Z,3.60
2023-05-19T06:36:56.394Z,3.73
2023-05-19T06:39:25.026Z,4.13
2023-05-19T06:41:51.800Z,3.53
2023-05-19T06:44:47.109Z,3.73
2023-05-19T06:47:16.171Z,3.37
2023-05-19T06:49:51.278Z,3.40
2023-05-19T06:52:18.342Z,3.43
2023-05-19T06:54:45.268Z,3.97
2023-05-19T06:57:12.792Z,3.60
2023-05-19T06:59:42.151Z,3.43
2023-05-19T07:02:10.030Z,3.60
2023-05-19T07:04:36.988Z,3.50
2023-05-19T07:07:03.983Z,3.50
2023-05-19T07:09:30.867Z,4.27
2023-05-19T07:11:58.106Z,4.23
2023-05-19T07:14:24.914Z,3.73
2023-05-19T07:16:52.009Z,3.87
2023-05-19T07:19:22.723Z,3.60
2023-05-19T07:21:50.047Z,3.50
2023-05-19T07:24:16.813Z,3.47
2023-05-19T07:26:43.570Z,3.87
2023-05-19T07:29:10.345Z,2.73
2023-05-19T07:31:37.173Z,3.07
2023-05-19T07:34:03.899Z,2.83
2023-05-19T07:36:31.512Z,3.20
2023-05-19T07:38:58.385Z,2.80
2023-05-19T07:41:25.170Z,3.27
2023-05-19T07:43:51.914Z,2.63
2023-05-19T07:46:18.744Z,2.10
2023-05-19T07:48:45.909Z,2.40
2023-05-19T07:51:14.214Z,2.63
2023-05-19T07:53:40.902Z,2.20
2023-05-19T07:56:07.976Z,2.30
2023-05-19T07:58:34.781Z,2.93
2023-05-19T08:01:01.785Z,2.07
2023-05-19T08:03:29.522Z,2.43
2023-05-19T08:05:56.574Z,3.03
2023-05-19T08:08:23.500Z,2.50
2023-05-19T08:10:50.227Z,2.57
2023-05-19T08:13:17.636Z,3.17
2023-05-19T08:15:44.546Z,2.90
2023-05-19T08:18:12.508Z,3.30
2023-05-19T08:20:39.381Z,3.20
2023-05-19T08:23:06.150Z,3.20
2023-05-19T08:25:32.957Z,3.30
2023-05-19T08:27:59.745Z,3.00
2023-05-19T08:30:26.546Z,3.30
2023-05-19T08:32:53.476Z,3.30
2023-05-19T08:35:20.281Z,3.00
2023-05-19T08:37:47.827Z,3.33
2023-05-19T08:40:16.599Z,2.87
2023-05-19T08:42:43.787Z,2.80
2023-05-19T08:45:10.643Z,2.80
2023-05-19T08:47:37.487Z,2.47
2023-05-19T08:50:07.973Z,2.80
2023-05-19T08:52:50.992Z,3.20
2023-05-19T08:55:21.910Z,2.33
2023-05-19T08:57:49.400Z,2.40
2023-05-19T09:00:16.694Z,2.53
2023-05-19T09:02:55.055Z,2.67
2023-05-19T09:05:28.106Z,2.43
2023-05-19T09:07:55.567Z,2.40
2023-05-19T09:10:22.403Z,1.97
2023-05-19T09:12:49.964Z,2.77
2023-05-19T09:15:18.793Z,2.60
2023-05-19T09:17:46.066Z,2.17
2023-05-19T09:20:13.183Z,2.53
2023-05-19T09:22:47.641Z,2.40
2023-05-19T09:25:17.922Z,2.07
2023-05-19T09:27:46.372Z,2.20
2023-05-19T09:30:13.484Z,2.60
2023-05-19T09:32:40.515Z,2.17
2023-05-19T09:35:07.611Z,2.30
2023-05-19T09:37:34.332Z,2.23
2023-05-19T09:40:01.115Z,2.40
2023-05-19T09:42:28.565Z,2.70
2023-05-19T09:45:02.416Z,2.40
2023-05-19T09:47:33.639Z,2.17
2023-05-19T09:50:00.452Z,2.27
2023-05-19T09:52:27.618Z,2.07
2023-05-19T09:54:56.289Z,2.53
2023-05-19T09:57:29.645Z,2.40
2023-05-19T09:59:58.332Z,2.10
2023-05-19T10:02:26.293Z,2.30
2023-05-19T10:04:53.347Z,2.20
2023-05-19T10:07:21.360Z,2.07
2023-05-19T10:09:48.966Z,2.10
2023-05-19T10:12:16.050Z,2.00
2023-05-19T10:14:42.915Z,2.33
2023-05-19T10:17:09.829Z,2.50
2023-05-19T10:19:37.385Z,1.97
2023-05-19T10:22:04.578Z,2.43
2023-05-19T10:24:31.474Z,2.47
2023-05-19T10:27:01.639Z,2.00
2023-05-19T10:29:30.829Z,2.23
2023-05-19T10:32:01.317Z,2.67
2023-05-19T10:34:28.111Z,2.30
2023-05-19T10:37:03.304Z,2.30
2023-05-19T10:39:35.774Z,1.93
2023-05-19T10:42:22.200Z,2.20
2023-05-19T10:44:58.608Z,2.30
2023-05-19T10:47:26.365Z,2.20
2023-05-19T10:49:56.268Z,2.00
2023-05-19T10:52:26.203Z,1.90
2023-05-19T10:54:54.824Z,1.57
2023-05-19T10:57:28.438Z,2.03
2023-05-19T10:59:55.895Z,1.93
2023-05-19T11:02:42.117Z,2.10
2023-05-19T11:05:14.772Z,1.97
2023-05-19T11:07:42.826Z,1.37
2023-05-19T11:10:09.692Z,2.27
2023-05-19T11:12:45.966Z,1.90
2023-05-19T11:15:14.488Z,1.83
2023-05-19T11:17:42.606Z,1.70
2023-05-19T11:20:11.295Z,1.73
2023-05-19T11:22:40.412Z,2.13
2023-05-19T11:25:08.309Z,1.50
2023-05-19T11:27:38.494Z,1.57
2023-05-19T11:30:07.677Z,1.30
2023-05-19T11:32:35.317Z,1.73
2023-05-19T11:35:02.634Z,1.40
2023-05-19T11:37:34.732Z,1.87
2023-05-19T11:40:01.990Z,1.60
2023-05-19T11:42:29.572Z,1.43
2023-05-19T11:44:56.434Z,1.43
2023-05-19T11:47:23.346Z,1.73
2023-05-19T11:49:52.197Z,2.07
2023-05-19T11:52:23.325Z,1.73
2023-05-19T11:54:50.365Z,1.80
2023-05-19T11:57:17.266Z,1.57
2023-05-19T11:59:45.824Z,1.40
2023-05-19T12:02:12.666Z,1.70
2023-05-19T12:04:39.798Z,1.53
2023-05-19T12:07:06.664Z,1.83
2023-05-19T12:09:33.424Z,1.80
2023-05-19T12:12:01.027Z,1.90
2023-05-19T12:14:29.885Z,2.17
2023-05-19T12:16:57.263Z,1.63
2023-05-19T12:19:26.135Z,2.03
2023-05-19T12:21:53.752Z,2.00
2023-05-19T12:24:20.815Z,1.90
2023-05-19T12:26:50.395Z,2.50
2023-05-19T12:29:17.499Z,1.90
2023-05-19T12:31:46.537Z,1.60
2023-05-19T12:34:13.438Z,1.67
2023-05-19T12:36:41.487Z,1.93
2023-05-19T12:39:08.289Z,2.20
2023-05-19T12:41:35.173Z,2.10
2023-05-19T12:44:01.925Z,1.80
2023-05-19T12:46:33.100Z,2.23
2023-05-19T12:49:01.285Z,1.80
2023-05-19T12:51:28.509Z,1.90
2023-05-19T12:53:55.366Z,1.87
2023-05-19T12:56:25.150Z,1.50
2023-05-19T12:58:53.759Z,2.00
2023-05-19T13:01:22.749Z,1.93
2023-05-19T13:03:49.783Z,1.90
2023-05-19T13:06:16.640Z,2.17
2023-05-19T13:08:43.492Z,2.73
2023-05-19T13:11:10.499Z,2.27
2023-05-19T13:13:37.521Z,2.07
2023-05-19T13:16:04.412Z,2.23
2023-05-19T13:18:32.741Z,1.37
2023-05-19T13:20:59.577Z,2.03
2023-05-19T13:23:26.590Z,2.20
2023-05-19T13:25:53.538Z,2.13
2023-05-19T13:28:20.406Z,1.97
2023-05-19T13:30:47.467Z,2.00
2023-05-19T13:33:14.324Z,2.20
2023-05-19T13:35:41.109Z,1.97
2023-05-19T13:38:10.471Z,2.07
2023-05-19T13:40:38.186Z,2.00
2023-05-19T13:43:05.269Z,1.90
2023-05-19T13:45:32.127Z,2.10
2023-05-19T13:47:59.066Z,2.13
2023-05-19T13:50:26.018Z,2.27
2023-05-19T13:52:53.463Z,2.20
2023-05-19T13:55:20.352Z,1.90
2023-05-19T13:57:47.110Z,1.90
2023-05-19T14:00:14.062Z,1.90
2023-05-19T14:02:41.316Z,2.07
2023-05-19T14:05:08.820Z,2.33
2023-05-19T14:07:35.887Z,2.43
2023-05-19T14:10:04.148Z,2.00
2023-05-19T14:12:41.519Z,1.87
2023-05-19T14:15:14.539Z,2.30
2023-05-19T14:17:41.650Z,1.63
2023-05-19T14:20:08.821Z,1.70
2023-05-19T14:22:35.651Z,2.00
2023-05-19T14:25:02.548Z,2.27
2023-05-19T14:27:29.393Z,1.77
2023-05-19T14:29:56.435Z,2.50
2023-05-19T14:32:23.406Z,2.00
2023-05-19T14:34:53.075Z,1.87
2023-05-19T14:37:20.194Z,2.43
2023-05-19T14:39:47.032Z,2.23
2023-05-19T14:42:13.863Z,2.63
2023-05-19T14:44:41.220Z,2.30
2023-05-19T14:47:08.642Z,2.00
2023-05-19T14:49:35.546Z,2.20
2023-05-19T14:52:02.297Z,2.37
2023-05-19T14:54:29.174Z,2.00
2023-05-19T14:56:55.882Z,2.17
2023-05-19T14:59:22.990Z,2.23
2023-05-19T15:01:49.728Z,1.87
2023-05-19T15:04:17.057Z,2.10
2023-05-19T15:06:44.379Z,2.63
2023-05-19T15:09:14.800Z,1.70
2023-05-19T15:11:41.834Z,2.00
2023-05-19T15:14:08.625Z,1.90
2023-05-19T15:16:35.461Z,1.97
2023-05-19T15:19:02.544Z,2.20
2023-05-19T15:21:29.290Z,1.90
2023-05-19T15:23:57.023Z,2.23
2023-05-19T15:26:23.795Z,1.70
2023-05-19T15:28:52.051Z,1.60
2023-05-19T15:31:18.914Z,2.30
2023-05-19T15:33:45.915Z,1.80
2023-05-19T15:36:16.513Z,1.73
2023-05-19T15:38:43.961Z,2.17
2023-05-19T15:41:11.267Z,2.00
2023-05-19T15:43:38.095Z,2.23
2023-05-19T15:46:05.331Z,2.50
2023-05-19T15:48:32.602Z,2.60
2023-05-19T15:50:59.896Z,1.80
2023-05-19T15:53:26.758Z,2.20
2023-05-19T15:55:53.566Z,1.97
2023-05-19T15:58:20.429Z,1.67
2023-05-19T16:00:47.294Z,2.30
2023-05-19T16:03:14.125Z,1.77
2023-05-19T16:05:41.419Z,1.87
2023-05-19T16:08:08.922Z,2.60
2023-05-19T16:10:35.868Z,2.10
2023-05-19T16:13:02.765Z,2.13
2023-05-19T16:15:29.528Z,2.90
2023-05-19T16:17:57.410Z,2.33
2023-05-19T16:20:28.029Z,2.00
2023-05-19T16:22:55.669Z,2.43
2023-05-19T16:25:22.752Z,2.37
2023-05-19T16:27:49.689Z,2.00
2023-05-19T16:30:16.791Z,1.50
2023-05-19T16:32:43.819Z,1.67
2023-05-19T16:35:10.726Z,1.70
2023-05-19T16:37:37.517Z,1.67
2023-05-19T16:40:04.494Z,2.87
2023-05-19T16:42:32.232Z,1.93
2023-05-19T16:44:59.015Z,1.67
2023-05-19T16:47:25.770Z,1.53
2023-05-19T16:49:52.540Z,1.60
2023-05-19T16:52:19.387Z,1.93
2023-05-19T16:54:46.182Z,1.70
2023-05-19T16:57:14.953Z,1.60
2023-05-19T16:59:41.811Z,2.30
2023-05-19T17:02:08.810Z,2.10
2023-05-19T17:04:35.618Z,1.80
2023-05-19T17:07:02.329Z,1.77
2023-05-19T17:09:29.064Z,1.73
2023-05-19T17:11:56.250Z,1.80
2023-05-19T17:14:23.099Z,2.10
2023-05-19T17:16:49.951Z,2.03
2023-05-19T17:19:17.084Z,1.50
2023-05-19T17:21:43.846Z,2.43
2023-05-19T17:24:10.700Z,1.53
2023-05-19T17:26:37.489Z,1.83
2023-05-19T17:29:04.367Z,1.60
2023-05-19T17:31:31.235Z,1.60
2023-05-19T17:33:57.991Z,1.60
2023-05-19T17:36:24.693Z,1.70
2023-05-19T17:38:51.432Z,1.53
2023-05-19T17:41:18.236Z,1.57
2023-05-19T17:43:45.025Z,1.90
2023-05-19T17:46:11.996Z,1.40
2023-05-19T17:48:40.075Z,1.50
2023-05-19T17:51:09.917Z,1.60
2023-05-19T17:53:37.131Z,1.47
2023-05-19T17:56:06.031Z,1.60
2023-05-19T17:58:33.046Z,1.40
2023-05-19T18:01:00.001Z,1.70
2023-05-19T18:03:27.596Z,1.80
2023-05-19T18:05:54.612Z,1.50
2023-05-19T18:08:21.634Z,1.90
2023-05-19T18:10:51.397Z,1.63
2023-05-19T18:13:18.189Z,1.73
2023-05-19T18:15:44.980Z,1.60
2023-05-19T18:18:11.899Z,1.40
2023-05-19T18:20:39.628Z,2.00
2023-05-19T18:23:06.592Z,1.40
2023-05-19T18:25:33.450Z,1.53
2023-05-19T18:28:00.317Z,1.60
2023-05-19T18:30:27.129Z,1.90
2023-05-19T18:32:54.320Z,1.60
2023-05-19T18:35:21.540Z,1.90
2023-05-19T18:37:56.713Z,1.60
2023-05-19T18:40:23.721Z,2.10
2023-05-19T18:42:50.753Z,1.57
2023-05-19T18:45:17.697Z,1.50
2023-05-19T18:47:44.545Z,1.67
2023-05-19T18:50:11.387Z,1.80
2023-05-19T18:52:38.110Z,1.43
2023-05-19T18:55:05.087Z,1.53
2023-05-19T18:57:31.916Z,1.87
2023-05-19T18:59:58.803Z,1.73
2023-05-19T19:02:25.559Z,1.70
2023-05-19T19:04:52.634Z,1.67
2023-05-19T19:07:19.570Z,1.57
2023-05-19T19:09:46.402Z,1.50
2023-05-19T19:12:13.155Z,2.10
2023-05-19T19:14:40.041Z,2.07
2023-05-19T19:17:06.868Z,2.07
2023-05-19T19:19:33.827Z,2.17
2023-05-19T19:22:01.231Z,2.10
2023-05-19T19:24:28.697Z,2.00
2023-05-19T19:26:55.553Z,1.63
2023-05-19T19:29:22.380Z,1.90
2023-05-19T19:31:49.685Z,1.90
2023-05-19T19:34:19.338Z,1.73
2023-05-19T19:36:47.961Z,1.97
2023-05-19T19:39:14.788Z,1.70
2023-05-19T19:41:42.585Z,1.70
2023-05-19T19:44:09.394Z,1.90
2023-05-19T19:46:36.297Z,2.00
2023-05-19T19:49:03.147Z,1.97
2023-05-19T19:51:29.947Z,1.73
2023-05-19T19:53:56.780Z,2.00
2023-05-19T19:56:24.891Z,1.70
2023-05-19T19:58:51.702Z,1.90
2023-05-19T20:01:20.670Z,2.40
2023-05-19T20:03:48.204Z,2.13
2023-05-19T20:06:15.158Z,2.10
2023-05-19T20:08:42.159Z,2.20
2023-05-19T20:11:08.998Z,2.17
2023-05-19T20:13:35.903Z,1.80
2023-05-19T20:16:02.743Z,1.90
2023-05-19T20:18:30.177Z,1.53
2023-05-19T20:20:57.429Z,2.00
2023-05-19T20:23:24.198Z,1.97
2023-05-19T20:26:09.973Z,1.70
2023-05-19T20:28:37.810Z,1.90
2023-05-19T20:31:05.067Z,1.87
2023-05-19T20:33:32.597Z,2.10
2023-05-19T20:35:59.365Z,2.30
2023-05-19T20:38:26.313Z,2.00
2023-05-19T20:40:53.992Z,2.00
2023-05-19T20:43:20.764Z,1.70
2023-05-19T20:45:47.605Z,1.90
2023-05-19T20:48:16.100Z,2.10
2023-05-19T20:50:43.034Z,2.10
2023-05-19T20:53:09.826Z,2.40
2023-05-19T20:55:38.038Z,2.27
2023-05-19T20:58:04.849Z,2.07
2023-05-19T21:00:32.085Z,2.50
2023-05-19T21:02:59.179Z,2.27
2023-05-19T21:05:26.147Z,2.40
2023-05-19T21:07:53.031Z,2.17
2023-05-19T21:10:19.781Z,2.20
2023-05-19T21:12:46.902Z,2.40
2023-05-19T21:15:13.730Z,2.00
2023-05-19T21:17:40.689Z,1.87
2023-05-19T21:20:08.035Z,2.00
2023-05-19T21:22:36.148Z,2.23
2023-05-19T21:25:02.938Z,1.93
2023-05-19T21:27:32.177Z,2.00
2023-05-19T21:29:58.970Z,1.90
2023-05-19T21:32:26.017Z,2.47
2023-05-19T21:34:52.866Z,1.77
2023-05-19T21:37:20.529Z,2.43
2023-05-19T21:39:47.368Z,1.80
2023-05-19T21:42:14.145Z,1.90
2023-05-19T21:44:41.098Z,2.00
2023-05-19T21:47:07.881Z,1.80
2023-05-19T21:49:34.842Z,1.90
2023-05-19T21:52:01.619Z,1.90
2023-05-19T21:54:28.468Z,2.00
2023-05-19T21:56:55.244Z,2.10
2023-05-19T21:59:24.872Z,2.20
2023-05-19T22:01:52.521Z,1.93
2023-05-19T22:04:20.621Z,1.70
2023-05-19T22:06:47.399Z,2.10
2023-05-19T22:09:14.407Z,1.97
2023-05-19T22:11:41.493Z,2.47
2023-05-19T22:14:08.368Z,2.23
2023-05-19T22:16:35.205Z,2.03
2023-05-19T22:19:02.066Z,2.37
2023-05-19T22:21:28.916Z,2.40
2023-05-19T22:23:55.919Z,2.33
2023-05-19T22:26:22.651Z,2.27
2023-05-19T22:28:49.788Z,1.93
2023-05-19T22:31:16.901Z,2.10
2023-05-19T22:33:43.818Z,2.27
2023-05-19T22:36:11.260Z,2.10
2023-05-19T22:38:38.118Z,2.17
2023-05-19T22:41:05.063Z,2.50
2023-05-19T22:43:31.784Z,2.40
2023-05-19T22:45:58.583Z,2.20
2023-05-19T22:48:25.412Z,2.20
2023-05-19T22:50:52.333Z,2.20
2023-05-19T22:53:19.088Z,2.33
2023-05-19T22:55:46.377Z,2.27
2023-05-19T22:58:13.177Z,2.17
2023-05-19T23:00:40.045Z,2.33
2023-05-19T23:03:06.845Z,2.30
2023-05-19T23:05:33.847Z,2.23
2023-05-19T23:08:00.798Z,2.17
2023-05-19T23:10:27.544Z,2.07
2023-05-19T23:12:54.328Z,2.20
2023-05-19T23:15:21.259Z,2.07
2023-05-19T23:17:48.152Z,2.27
2023-05-19T23:20:14.961Z,2.20
2023-05-19T23:22:41.685Z,2.40
2023-05-19T23:25:08.465Z,2.17
2023-05-19T23:27:35.770Z,2.43
2023-05-19T23:30:03.062Z,2.57
2023-05-19T23:32:31.084Z,2.37
2023-05-19T23:34:58.411Z,2.03
2023-05-19T23:37:25.167Z,2.30
2023-05-19T23:39:51.913Z,2.00
2023-05-19T23:42:18.637Z,2.40
2023-05-19T23:44:45.795Z,2.50
2023-05-19T23:47:12.527Z,2.20
2023-05-19T23:49:39.297Z,2.20
2023-05-19T23:52:06.323Z,2.40
2023-05-19T23:54:33.141Z,2.53
2023-05-19T23:57:01.602Z,2.13
2023-05-19T23:59:28.401Z,2.20
